Terminal Aerodrome Forecast
Issued by NWS Wilmington, OH

Current Version | Previous Version | Graphics & Text | Print | Product List | Glossary On
Versions: 1 2 3 4 5 6 7 8 9 10 11 12 13 14 15 16 17 18
000
FTUS41 KILN 251500 AAA
TAFILN
TAF AMD
KILN 251509Z 2515/2612 21018G26KT P6SM VCSH SCT040 BKN080
     FM251800 22014G22KT P6SM VCSH BKN040
     FM260000 20009KT P6SM BKN080
     FM260800 19008KT P6SM BKN035=

USA.gov is the U.S. government's official web portal to all federal, state and local government web resources and services.